Time;durP1;ratioP1;P1;durP2;ratioP2;P2;SDS_P1;SDS_P2;PMS_P1;PMS_P2;Temp;Humidity;BMP_temperature;BMP_pressure;BME280_temperature;BME280_humidity;BME280_pressure;Samples;Min_cycle;Max_cycle;Signal;HPM_P1;HPM_P2
2021/05/03 00:02:20;;;;;;;9.02;5.38;;;;;;;8.13;47.87;102071.22;4888764;28;124588;-73
2021/05/03 00:04:46;;;;;;;7.72;4.85;;;;;;;8.10;48.26;102071.25;4893455;28;122955;-73
2021/05/03 00:07:13;;;;;;;7.25;4.85;;;;;;;8.08;48.22;102062.50;4917807;28;119619;-73
2021/05/03 00:09:40;;;;;;;7.15;4.78;;;;;;;8.06;48.24;102064.28;4910483;28;119487;-72
2021/05/03 00:12:08;;;;;;;6.18;4.40;;;;;;;8.03;48.13;102059.94;4884831;28;123866;-73
2021/05/03 00:14:34;;;;;;;8.75;4.65;;;;;;;8.01;48.37;102060.88;4902155;28;124353;-73
2021/05/03 00:17:01;;;;;;;7.45;4.88;;;;;;;7.98;48.58;102054.72;4901343;28;119257;-72
2021/05/03 00:19:28;;;;;;;7.78;4.45;;;;;;;7.96;48.14;102053.88;4895001;28;117927;-73
2021/05/03 00:21:54;;;;;;;7.75;4.47;;;;;;;7.96;48.25;102064.44;4904181;28;125892;-73
2021/05/03 00:24:21;;;;;;;9.05;5.15;;;;;;;7.92;48.17;102052.19;4907459;28;124520;-73
2021/05/03 00:26:47;;;;;;;6.53;4.80;;;;;;;7.90;48.49;102053.97;4903936;28;119473;-73
2021/05/03 00:29:14;;;;;;;7.78;4.82;;;;;;;7.86;48.47;102060.19;4910394;28;119183;-73
2021/05/03 00:31:41;;;;;;;9.63;5.30;;;;;;;7.83;48.39;102057.59;4908798;28;123836;-73
2021/05/03 00:34:07;;;;;;;7.63;5.07;;;;;;;7.80;48.36;102063.78;4893065;28;122645;-73
2021/05/03 00:36:34;;;;;;;5.93;4.22;;;;;;;7.77;48.36;102066.44;4910942;28;119715;-73
2021/05/03 00:39:00;;;;;;;7.43;4.78;;;;;;;7.76;48.44;102061.19;4880773;28;118207;-72
2021/05/03 00:41:27;;;;;;;6.72;4.70;;;;;;;7.72;48.35;102059.50;4889770;28;122478;-73
2021/05/03 00:43:53;;;;;;;7.20;4.60;;;;;;;7.68;48.70;102060.44;4900135;28;124522;-73
2021/05/03 00:46:21;;;;;;;7.28;5.20;;;;;;;7.65;48.56;102063.09;4899875;28;120708;-73
2021/05/03 00:48:48;;;;;;;9.10;4.90;;;;;;;7.62;48.59;102052.63;4904363;28;120467;-73
2021/05/03 00:51:15;;;;;;;6.13;4.55;;;;;;;7.59;48.87;102059.69;4904465;28;125577;-72
2021/05/03 00:53:42;;;;;;;6.57;4.93;;;;;;;7.57;48.78;102068.47;4890456;28;124465;-73
2021/05/03 00:56:08;;;;;;;8.73;4.97;;;;;;;7.53;48.56;102070.28;4888088;28;118393;-72
2021/05/03 00:58:36;;;;;;;9.38;5.10;;;;;;;7.47;48.68;102070.38;4906040;28;118078;-73
2021/05/03 01:01:03;;;;;;;8.25;5.25;;;;;;;7.44;48.68;102069.53;4903633;28;123886;-73
2021/05/03 01:03:31;;;;;;;7.80;4.65;;;;;;;7.40;48.83;102068.69;4889475;28;122779;-73
2021/05/03 01:05:57;;;;;;;7.75;5.25;;;;;;;7.37;48.74;102058.19;4903489;28;120056;-74
2021/05/03 01:08:24;;;;;;;9.23;4.97;;;;;;;7.33;48.75;102057.38;4901974;28;119375;-73
2021/05/03 01:10:51;;;;;;;8.70;5.07;;;;;;;7.31;48.65;102058.25;4908247;28;124308;-73
2021/05/03 01:13:17;;;;;;;8.20;4.85;;;;;;;7.28;49.10;102055.66;4902688;28;124583;-73
2021/05/03 01:15:44;;;;;;;8.18;4.70;;;;;;;7.26;48.98;102060.09;4909944;28;119662;-73
2021/05/03 01:18:11;;;;;;;8.20;4.90;;;;;;;7.22;48.92;102054.84;4877406;28;119116;-73
2021/05/03 01:20:38;;;;;;;7.32;5.43;;;;;;;7.21;49.12;102053.13;4907472;28;124306;-73
2021/05/03 01:23:07;;;;;;;7.38;4.90;;;;;;;7.20;49.16;102055.75;4887144;28;124364;-73
2021/05/03 01:25:37;;;;;;;8.60;5.13;;;;;;;7.19;49.18;102054.88;4881912;28;118193;-74
2021/05/03 01:28:06;;;;;;;6.35;4.78;;;;;;;7.17;48.92;102055.78;4878539;28;118529;-72
2021/05/03 01:30:38;;;;;;;8.82;5.40;;;;;;;7.14;49.37;102056.72;4877252;28;125214;-73
2021/05/03 01:33:07;;;;;;;9.25;5.18;;;;;;;7.10;49.29;102049.72;4881843;28;123049;-73
2021/05/03 01:35:36;;;;;;;6.57;4.72;;;;;;;7.08;49.08;102062.03;4877539;28;120872;-73
2021/05/03 01:38:05;;;;;;;7.07;5.25;;;;;;;7.05;49.46;102062.06;4905501;28;119927;-72
2021/05/03 01:40:34;;;;;;;6.43;4.60;;;;;;;7.06;49.40;102052.41;4888147;28;124636;-72
2021/05/03 01:43:16;;;;;;;8.38;4.68;;;;;;;7.02;49.44;102054.19;4900657;28;121891;-72
2021/05/03 01:45:45;;;;;;;7.75;5.15;;;;;;;7.00;49.57;102048.06;4900024;28;118995;-73
2021/05/03 01:48:16;;;;;;;9.85;5.10;;;;;;;6.98;49.75;102044.59;4884477;28;118829;-73
2021/05/03 01:50:44;;;;;;;10.18;5.72;;;;;;;6.96;49.58;102046.38;4903174;28;124422;-73
2021/05/03 01:53:11;;;;;;;8.55;5.28;;;;;;;6.94;49.80;102049.00;4909283;28;124371;-74
2021/05/03 01:55:44;;;;;;;7.93;5.28;;;;;;;6.94;49.82;102056.03;4894914;28;118418;-72
2021/05/03 01:58:13;;;;;;;9.02;5.07;;;;;;;6.93;49.95;102057.81;4889220;28;119150;-73
2021/05/03 02:00:40;;;;;;;9.98;5.38;;;;;;;6.93;49.67;102062.19;4882340;28;123038;-72
2021/05/03 02:03:16;;;;;;;7.95;5.38;;;;;;;6.88;49.68;102056.13;4889521;28;123278;-73
2021/05/03 02:05:43;;;;;;;10.85;5.43;;;;;;;6.86;49.32;102057.91;4891957;28;118828;-73
2021/05/03 02:08:10;;;;;;;9.98;6.13;;;;;;;6.81;49.47;102063.19;4913127;28;118925;-73
2021/05/03 02:10:37;;;;;;;8.13;5.43;;;;;;;6.77;49.54;102056.22;4898702;28;127015;-72
2021/05/03 02:13:05;;;;;;;7.40;4.97;;;;;;;6.72;49.64;102053.59;4908010;28;123922;-72
2021/05/03 02:15:32;;;;;;;8.80;5.53;;;;;;;6.69;49.42;102058.91;4905068;28;119283;-73
2021/05/03 02:17:59;;;;;;;9.68;5.60;;;;;;;6.63;49.27;102059.00;4911552;28;119285;-73
2021/05/03 02:20:27;;;;;;;7.97;5.45;;;;;;;6.59;49.67;102057.25;4902801;28;123326;-73
2021/05/03 02:22:54;;;;;;;10.32;5.97;;;;;;;6.54;49.62;102056.44;4892882;28;123453;-73
2021/05/03 02:25:20;;;;;;;10.15;5.90;;;;;;;6.50;49.68;102057.31;4906283;28;120472;-72
2021/05/03 02:27:48;;;;;;;8.70;5.97;;;;;;;6.45;49.71;102045.97;4905543;28;119954;-73
2021/05/03 02:30:16;;;;;;;11.15;6.00;;;;;;;6.41;49.86;102046.00;4887902;28;122833;-73
2021/05/03 02:32:45;;;;;;;10.77;6.35;;;;;;;6.38;50.08;102043.38;4903478;28;123703;-73
2021/05/03 02:35:16;;;;;;;8.38;5.82;;;;;;;6.36;50.04;102050.41;4908573;28;119186;-73
2021/05/03 02:37:46;;;;;;;10.65;6.25;;;;;;;6.35;50.48;102043.44;4900003;28;118846;-73
2021/05/03 02:40:14;;;;;;;9.55;6.43;;;;;;;6.33;50.18;102034.69;4888565;28;123975;-73
2021/05/03 02:42:40;;;;;;;12.32;7.60;;;;;;;6.32;50.29;102037.31;4903483;28;123923;-73
2021/05/03 02:45:08;;;;;;;11.27;7.55;;;;;;;6.32;50.52;102034.69;4901109;28;119514;-73
2021/05/03 02:47:34;;;;;;;11.35;6.72;;;;;;;6.32;50.82;102032.06;4896578;28;118732;-73
2021/05/03 02:50:01;;;;;;;9.60;6.72;;;;;;;6.30;50.79;102034.69;4902709;28;123692;-72
2021/05/03 02:52:28;;;;;;;11.48;6.18;;;;;;;6.28;51.17;102028.56;4905956;28;124105;-73
2021/05/03 02:54:54;;;;;;;9.80;5.97;;;;;;;6.27;51.10;102029.44;4882329;28;118802;-73
2021/05/03 02:57:21;;;;;;;9.43;6.55;;;;;;;6.27;51.28;102018.91;4892461;28;118948;-73
2021/05/03 02:59:47;;;;;;;11.40;6.45;;;;;;;6.27;51.49;102032.06;4905659;28;123977;-73
2021/05/03 03:02:14;;;;;;;11.52;6.38;;;;;;;6.29;51.63;102027.69;4910631;28;123925;-73
2021/05/03 03:04:41;;;;;;;9.15;6.25;;;;;;;6.31;51.48;102030.28;4887560;28;118870;-73
2021/05/03 03:07:07;;;;;;;10.50;6.88;;;;;;;6.32;51.41;102030.28;4910044;28;118918;-72
2021/05/03 03:09:35;;;;;;;9.52;6.53;;;;;;;6.34;51.60;102028.50;4892754;28;123374;-73
2021/05/03 03:12:02;;;;;;;13.30;7.00;;;;;;;6.33;51.28;102029.41;4905914;28;124225;-73
2021/05/03 03:14:28;;;;;;;10.90;6.35;;;;;;;6.32;51.40;102022.38;4894032;28;120070;-73
2021/05/03 03:16:55;;;;;;;9.43;6.78;;;;;;;6.31;51.44;102031.19;4902239;28;119658;-73
2021/05/03 03:19:21;;;;;;;11.85;6.35;;;;;;;6.31;51.66;102028.56;4880673;28;124272;-73
2021/05/03 03:21:48;;;;;;;8.13;6.47;;;;;;;6.29;51.21;102022.44;4918461;28;124261;-73
2021/05/03 03:24:14;;;;;;;10.73;6.82;;;;;;;6.29;51.20;102027.69;4909519;28;117978;-73
2021/05/03 03:26:41;;;;;;;9.07;6.63;;;;;;;6.27;51.56;102026.81;4879841;28;118993;-73
2021/05/03 03:29:07;;;;;;;11.93;6.78;;;;;;;6.25;51.52;102025.94;4898695;28;123001;-73
2021/05/03 03:31:34;;;;;;;9.95;6.82;;;;;;;6.24;51.58;102029.47;4909905;28;124157;-73
2021/05/03 03:34:01;;;;;;;9.25;6.15;;;;;;;6.23;51.49;102022.47;4899420;28;118659;-73
2021/05/03 03:36:27;;;;;;;11.07;6.80;;;;;;;6.23;51.48;102022.47;4901578;28;119615;-72
2021/05/03 03:38:54;;;;;;;10.50;6.80;;;;;;;6.22;51.52;102026.00;4876277;28;123640;-73
2021/05/03 03:41:20;;;;;;;9.75;6.60;;;;;;;6.22;51.68;102020.72;4901895;28;122868;-73
2021/05/03 03:43:47;;;;;;;10.80;7.18;;;;;;;6.20;51.38;102023.38;4909232;28;119397;-73
2021/05/03 03:46:13;;;;;;;12.20;7.15;;;;;;;6.20;51.65;102020.75;4888989;28;119232;-73
2021/05/03 03:48:40;;;;;;;11.80;6.97;;;;;;;6.20;51.79;102017.25;4885965;28;123101;-73
2021/05/03 03:51:07;;;;;;;10.80;7.40;;;;;;;6.20;51.96;102014.63;4906294;28;124350;-73
2021/05/03 03:53:33;;;;;;;12.40;6.90;;;;;;;6.21;51.96;102013.72;4890399;28;119480;-73
2021/05/03 03:56:00;;;;;;;8.45;6.68;;;;;;;6.22;52.07;102007.56;4891285;28;118394;-72
2021/05/03 03:58:26;;;;;;;9.95;7.13;;;;;;;6.23;52.19;102011.94;4907812;28;124475;-73
2021/05/03 04:00:53;;;;;;;12.90;6.88;;;;;;;6.25;52.16;102002.28;4909152;28;123849;-73
2021/05/03 04:03:23;;;;;;;15.27;7.63;;;;;;;6.29;52.52;102011.91;4890985;28;96870;-73
2021/05/03 04:06:11;;;;;;;11.50;7.28;;;;;;;6.31;52.15;102015.41;4896547;23;119554;-65
2021/05/03 04:08:53;;;;;;;12.30;7.63;;;;;;;6.33;52.46;102013.63;4900699;28;123244;-65
2021/05/03 04:24:52;;;;;;;12.50;8.05;;;;;;;6.53;52.53;102015.19;4869770;28;119533;-66
2021/05/03 04:27:18;;;;;;;12.48;8.02;;;;;;;6.58;52.69;102010.78;4864605;28;119286;-66
2021/05/03 04:29:45;;;;;;;10.85;8.10;;;;;;;6.61;52.73;102010.72;4883389;28;122917;-66
2021/05/03 04:32:11;;;;;;;13.15;7.78;;;;;;;6.66;53.10;102010.69;4868592;28;124642;-66
2021/05/03 04:34:38;;;;;;;11.77;8.23;;;;;;;6.70;52.94;102008.00;4873808;28;119301;-66
2021/05/03 04:37:05;;;;;;;13.77;8.68;;;;;;;6.75;52.58;102006.19;4871726;28;118953;-66
2021/05/03 04:39:32;;;;;;;10.85;7.60;;;;;;;6.81;52.63;102008.75;4874024;28;123921;-66
2021/05/03 04:41:59;;;;;;;12.40;7.32;;;;;;;6.88;53.17;102006.09;4870052;28;124323;-66
2021/05/03 04:44:25;;;;;;;13.95;7.50;;;;;;;6.92;52.90;102007.78;4869140;28;119475;-66
2021/05/03 04:46:52;;;;;;;10.90;6.93;;;;;;;6.98;53.04;102012.97;4870891;28;118942;-66
2021/05/03 04:49:18;;;;;;;12.60;7.13;;;;;;;7.01;52.92;102008.56;4873924;28;124139;-66
2021/05/03 04:51:45;;;;;;;13.05;6.97;;;;;;;7.07;53.18;102002.34;4875784;28;123945;-66
2021/05/03 04:54:11;;;;;;;14.77;7.53;;;;;;;7.11;52.94;102004.03;4875658;28;120107;-67
2021/05/03 04:56:38;;;;;;;10.13;7.05;;;;;;;7.16;53.25;101996.09;4888835;28;119454;-66
2021/05/03 04:59:04;;;;;;;11.45;6.85;;;;;;;7.22;52.90;101990.75;4869544;28;123970;-67
2021/05/03 05:01:31;;;;;;;10.07;6.75;;;;;;;7.29;52.82;101996.78;4885145;28;124217;-66
2021/05/03 05:03:58;;;;;;;9.57;7.22;;;;;;;7.35;53.07;102002.00;4870512;28;120005;-67
2021/05/03 05:06:24;;;;;;;9.77;6.90;;;;;;;7.39;52.68;102003.72;4866245;28;119406;-66
2021/05/03 05:08:51;;;;;;;11.30;6.70;;;;;;;7.44;52.97;102001.88;4867027;28;123854;-66
2021/05/03 05:11:17;;;;;;;9.65;6.15;;;;;;;7.48;52.59;102003.59;4886232;28;123162;-66
2021/05/03 05:13:44;;;;;;;11.00;7.20;;;;;;;7.53;52.76;102007.00;4883603;28;119466;-66
2021/05/03 05:16:11;;;;;;;11.93;7.10;;;;;;;7.57;52.80;102019.28;4873653;28;119301;-66
2021/05/03 05:18:37;;;;;;;10.50;6.80;;;;;;;7.62;52.76;102005.16;4869687;28;122538;-66
2021/05/03 05:21:04;;;;;;;10.30;6.78;;;;;;;7.66;52.66;102006.84;4879368;28;124527;-66
2021/05/03 05:23:31;;;;;;;10.85;6.82;;;;;;;7.70;52.47;102009.41;4866246;28;118292;-67
2021/05/03 05:25:57;;;;;;;12.65;7.20;;;;;;;7.76;52.46;102008.44;4863267;28;119648;-66
2021/05/03 05:28:24;;;;;;;11.35;7.28;;;;;;;7.82;52.46;102002.22;4860088;28;124685;-66
2021/05/03 05:30:50;;;;;;;12.52;6.95;;;;;;;7.86;52.39;101994.25;4867684;28;123544;-66
2021/05/03 05:33:17;;;;;;;10.85;7.35;;;;;;;7.90;52.43;101995.94;4865514;28;120158;-66
2021/05/03 05:35:43;;;;;;;12.65;7.57;;;;;;;7.93;52.37;101995.91;4873665;28;118646;-66
2021/05/03 05:38:10;;;;;;;12.20;7.15;;;;;;;7.98;52.33;101999.31;4869446;28;124682;-66
2021/05/03 05:40:37;;;;;;;11.60;7.43;;;;;;;8.04;52.34;101997.50;4866682;28;123957;-66
2021/05/03 05:43:06;;;;;;;10.10;7.00;;;;;;;8.12;52.36;102000.91;4882242;28;120411;-66
2021/05/03 05:45:33;;;;;;;11.30;7.30;;;;;;;8.22;52.51;102001.63;4869774;28;119802;-67
2021/05/03 05:48:00;;;;;;;12.80;7.70;;;;;;;8.28;52.41;101991.81;4873182;28;122888;-66
2021/05/03 05:50:29;;;;;;;12.57;6.78;;;;;;;8.37;52.23;102001.34;4858531;28;123457;-67
2021/05/03 05:52:56;;;;;;;10.50;6.88;;;;;;;8.43;52.52;101989.84;4875088;28;119288;-66
2021/05/03 05:55:23;;;;;;;9.80;6.97;;;;;;;8.50;52.36;101991.47;4891661;28;119284;-66
2021/05/03 05:57:50;;;;;;;11.60;7.55;;;;;;;8.55;51.89;101989.59;4872240;28;123281;-66
2021/05/03 06:00:17;;;;;;;13.02;6.95;;;;;;;8.63;52.09;101987.72;4873162;28;124285;-66
2021/05/03 06:02:44;;;;;;;11.23;7.20;;;;;;;8.69;51.92;101982.31;4869311;28;118687;-66
2021/05/03 06:05:11;;;;;;;10.10;6.75;;;;;;;8.76;51.99;101983.94;4870388;28;118627;-66
2021/05/03 06:07:38;;;;;;;11.77;7.22;;;;;;;8.84;52.14;101975.00;4858259;28;124658;-66
2021/05/03 06:10:07;;;;;;;8.45;6.53;;;;;;;8.93;51.94;101980.13;4874049;28;124114;-66
2021/05/03 06:12:34;;;;;;;9.95;6.70;;;;;;;9.00;51.81;101976.41;4868122;28;119637;-66
2021/05/03 06:15:07;;;;;;;11.38;6.32;;;;;;;9.10;51.71;101972.69;4864081;28;119077;-66
2021/05/03 06:17:34;;;;;;;9.35;6.68;;;;;;;9.19;51.56;101981.34;4871020;28;123851;-67
2021/05/03 06:20:01;;;;;;;9.10;6.28;;;;;;;9.27;51.15;101979.41;4871027;28;123815;-67
2021/05/03 06:22:28;;;;;;;9.25;6.15;;;;;;;9.33;51.24;101974.00;4873735;28;119491;-66
2021/05/03 06:24:55;;;;;;;8.75;6.35;;;;;;;9.41;51.11;101982.63;4871882;28;119325;-67
2021/05/03 06:27:22;;;;;;;9.63;5.63;;;;;;;9.49;50.82;101978.06;4871857;28;124050;-66
2021/05/03 06:29:48;;;;;;;9.35;5.93;;;;;;;9.58;50.59;101978.72;4875775;28;124625;-66
2021/05/03 06:32:15;;;;;;;7.60;6.03;;;;;;;9.68;50.83;101975.84;4856606;28;119960;-66
2021/05/03 06:34:43;;;;;;;9.93;6.22;;;;;;;9.78;50.58;101976.50;4873752;28;118728;-67
2021/05/03 06:37:10;;;;;;;8.85;5.85;;;;;;;9.91;50.33;101983.25;4879516;28;124004;-67
2021/05/03 06:39:37;;;;;;;8.57;5.18;;;;;;;10.02;50.20;101982.09;4870759;28;124135;-67
2021/05/03 06:42:05;;;;;;;8.27;5.80;;;;;;;10.16;50.42;101982.63;4888056;28;118790;-67
2021/05/03 06:44:34;;;;;;;7.85;4.97;;;;;;;10.30;49.90;101982.28;4871371;28;118536;-67
2021/05/03 06:47:05;;;;;;;7.57;5.40;;;;;;;10.45;49.77;101978.41;4885207;28;123192;-67
2021/05/03 06:49:31;;;;;;;6.95;4.78;;;;;;;10.58;49.25;101982.47;4871516;28;123580;-67
2021/05/03 06:51:58;;;;;;;9.60;5.13;;;;;;;10.73;49.15;101977.66;4874813;28;119049;-67
2021/05/03 06:54:24;;;;;;;8.27;5.10;;;;;;;10.86;49.35;101977.28;4890621;28;118942;-67
2021/05/03 06:56:51;;;;;;;7.93;5.28;;;;;;;11.02;48.80;101975.06;4886521;28;122881;-66
2021/05/03 06:59:18;;;;;;;11.27;5.15;;;;;;;11.18;48.61;101979.94;4873742;28;124024;-66
2021/05/03 07:01:45;;;;;;;10.50;5.65;;;;;;;11.32;48.20;101985.72;4873351;28;119472;-65
2021/05/03 07:04:12;;;;;;;7.47;5.15;;;;;;;11.45;48.24;101979.13;4873619;28;118760;-67
2021/05/03 07:06:38;;;;;;;10.05;5.40;;;;;;;11.59;47.60;101980.47;4872201;28;123944;-66
2021/05/03 07:09:08;;;;;;;9.48;5.28;;;;;;;11.68;47.42;101964.28;4867969;28;124099;-65
2021/05/03 07:11:36;;;;;;;7.90;5.60;;;;;;;11.80;47.07;101974.47;4873337;28;120339;-66
2021/05/03 07:14:04;;;;;;;8.80;5.35;;;;;;;11.93;46.76;101974.13;4870754;28;119984;-66
2021/05/03 07:16:30;;;;;;;9.68;5.45;;;;;;;12.08;46.64;101968.31;4873228;28;124505;-66
2021/05/03 07:18:57;;;;;;;8.88;5.32;;;;;;;12.20;46.41;101967.88;4870388;28;122797;-67
2021/05/03 07:21:23;;;;;;;9.10;5.63;;;;;;;12.34;45.82;101959.47;4871751;28;120559;-67
2021/05/03 07:23:50;;;;;;;8.77;5.65;;;;;;;12.48;45.77;101958.97;4865152;28;120050;-66
2021/05/03 07:26:17;;;;;;;9.60;5.20;;;;;;;12.63;45.73;101954.91;4866385;28;123955;-66
2021/05/03 07:28:44;;;;;;;8.57;5.70;;;;;;;12.78;45.46;101958.81;4867689;28;123684;-67
2021/05/03 07:31:10;;;;;;;9.05;5.43;;;;;;;12.93;44.99;101952.91;4865941;28;120304;-66
2021/05/03 07:33:37;;;;;;;8.68;5.50;;;;;;;13.07;44.92;101952.38;4846384;28;117408;-67
2021/05/03 07:36:04;;;;;;;11.32;6.10;;;;;;;13.23;44.61;101952.69;4862968;28;124477;-66
2021/05/03 07:38:31;;;;;;;11.25;5.75;;;;;;;13.34;44.30;101953.19;4857425;28;123755;-66
2021/05/03 07:40:58;;;;;;;10.93;6.18;;;;;;;13.48;44.11;101955.28;4862075;28;119478;-65
2021/05/03 07:43:24;;;;;;;8.80;5.93;;;;;;;13.59;43.70;101952.22;4863527;28;119155;-65
2021/05/03 07:45:51;;;;;;;9.35;5.90;;;;;;;13.69;43.85;101942.91;4868052;28;123962;-66
2021/05/03 07:48:18;;;;;;;11.70;6.05;;;;;;;13.80;43.43;101940.69;4868966;28;124155;-66
2021/05/03 07:50:44;;;;;;;10.45;7.28;;;;;;;13.94;43.40;101953.44;4866917;28;119187;-65
2021/05/03 07:53:11;;;;;;;9.98;7.13;;;;;;;14.05;42.98;101950.31;4865124;28;119292;-67
2021/05/03 07:55:38;;;;;;;11.30;6.82;;;;;;;14.12;42.63;101946.47;4862404;28;123797;-66
2021/05/03 07:58:04;;;;;;;11.80;7.45;;;;;;;14.17;42.46;101941.81;4862548;28;123737;-66
2021/05/03 08:00:31;;;;;;;11.60;7.47;;;;;;;14.23;42.40;101937.16;4863271;28;119570;-65
2021/05/03 08:02:58;;;;;;;9.85;7.70;;;;;;;14.31;42.32;101941.22;4862118;28;118990;-66
2021/05/03 08:05:25;;;;;;;10.63;7.80;;;;;;;14.40;41.97;101945.28;4858130;28;124946;-66
2021/05/03 08:07:52;;;;;;;10.50;7.72;;;;;;;14.46;41.93;101929.03;4852809;28;122820;-66
2021/05/03 08:10:19;;;;;;;12.02;7.13;;;;;;;14.54;41.82;101932.25;4863573;28;120654;-66
2021/05/03 08:12:45;;;;;;;11.73;8.13;;;;;;;14.65;42.06;101938.91;4872209;28;120072;-67
2021/05/03 08:15:14;;;;;;;10.80;7.90;;;;;;;14.77;41.76;101927.72;4855138;28;123461;-66
2021/05/03 08:17:43;;;;;;;11.32;8.02;;;;;;;14.86;41.62;101927.28;4859964;28;123916;-66
2021/05/03 08:20:13;;;;;;;11.73;8.10;;;;;;;14.94;41.24;101925.13;4862863;28;119244;-66
2021/05/03 08:22:41;;;;;;;11.82;8.20;;;;;;;15.04;41.34;101924.72;4867233;28;118787;-66
2021/05/03 08:25:09;;;;;;;10.55;8.13;;;;;;;15.17;41.35;101925.88;4866258;28;123675;-67
2021/05/03 08:27:36;;;;;;;11.40;8.00;;;;;;;15.28;41.08;101918.22;4867550;28;124792;-66
2021/05/03 08:30:05;;;;;;;12.43;8.65;;;;;;;15.42;41.11;101914.00;4878287;28;119069;-65
2021/05/03 08:32:31;;;;;;;10.40;8.68;;;;;;;15.53;40.78;101914.34;4882962;28;119331;-65
2021/05/03 08:34:58;;;;;;;13.23;8.88;;;;;;;15.63;40.69;101912.94;4879415;28;124736;-65
2021/05/03 08:37:25;;;;;;;11.80;8.88;;;;;;;15.75;40.31;101916.88;4882307;28;123752;-65
2021/05/03 08:39:51;;;;;;;11.73;8.13;;;;;;;15.87;40.26;101910.06;4869182;28;118135;-65
2021/05/03 08:42:19;;;;;;;9.88;8.15;;;;;;;15.98;39.83;101913.06;4896913;28;118273;-64
2021/05/03 08:44:48;;;;;;;12.40;9.38;;;;;;;16.07;39.70;101911.72;4889745;28;123557;-65
2021/05/03 08:47:15;;;;;;;10.75;8.68;;;;;;;16.18;39.49;101913.81;4885840;28;124489;-66
2021/05/03 08:50:05;;;;;;;10.60;8.90;;;;;;;16.25;39.26;101909.91;4886472;28;119562;-65
2021/05/03 08:52:52;;;;;;;10.98;8.77;;;;;;;16.30;39.08;101897.16;4874860;28;118836;-65
2021/05/03 08:55:19;;;;;;;10.60;8.60;;;;;;;16.35;38.67;101895.97;4881988;28;124041;-66
2021/05/03 08:57:45;;;;;;;10.25;8.65;;;;;;;16.41;39.02;101889.44;4887490;28;124643;-66
2021/05/03 09:00:14;;;;;;;10.68;8.60;;;;;;;16.49;38.34;101892.56;4890418;28;120671;-65
2021/05/03 09:02:46;;;;;;;12.05;8.85;;;;;;;16.54;38.31;101890.53;4896411;28;119971;-66
2021/05/03 09:05:14;;;;;;;10.95;8.48;;;;;;;16.60;38.02;101888.47;4867179;28;124412;-66
2021/05/03 09:07:48;;;;;;;15.90;8.77;;;;;;;16.67;37.85;101885.38;4857274;28;124225;-65
2021/05/03 09:10:17;;;;;;;9.98;8.35;;;;;;;16.76;37.84;101889.34;4870150;28;118475;-66
2021/05/03 09:12:44;;;;;;;12.10;8.45;;;;;;;16.83;37.37;101892.59;4862440;28;119549;-66
2021/05/03 09:15:12;;;;;;;13.55;8.77;;;;;;;16.90;37.39;101885.97;4865746;28;124510;-66
2021/05/03 09:17:44;;;;;;;11.70;8.65;;;;;;;16.96;37.23;101879.41;4852244;28;123920;-65
2021/05/03 09:20:17;;;;;;;12.18;8.57;;;;;;;17.04;37.34;101882.53;4867633;28;119258;-65
2021/05/03 09:22:58;;;;;;;11.45;8.75;;;;;;;17.13;37.34;101882.00;4861671;28;119045;-64
2021/05/03 09:25:31;;;;;;;12.52;8.65;;;;;;;17.23;37.15;101872.50;4870001;28;123763;-65
2021/05/03 09:28:11;;;;;;;12.18;8.45;;;;;;;17.27;36.51;101867.84;4866131;28;123873;-66
2021/05/03 09:30:55;;;;;;;11.88;9.30;;;;;;;17.35;36.77;101875.41;4853786;28;119168;-66
2021/05/03 09:33:36;;;;;;;11.95;8.35;;;;;;;17.38;36.70;101875.25;4868545;28;119785;-65
2021/05/03 09:36:05;;;;;;;11.02;8.50;;;;;;;17.44;36.26;101874.91;4880208;28;122229;-66
2021/05/03 09:38:42;;;;;;;13.57;9.32;;;;;;;17.47;36.01;101869.38;4876709;28;124064;-65
2021/05/03 09:41:25;;;;;;;9.63;8.57;;;;;;;17.52;36.02;101867.31;4867065;28;118092;-65
2021/05/03 09:44:05;;;;;;;11.68;8.95;;;;;;;17.59;35.97;101867.78;4870499;28;119278;-65
2021/05/03 09:46:35;;;;;;;10.52;8.73;;;;;;;17.67;35.91;101866.41;4858909;28;123959;-65
2021/05/03 09:49:08;;;;;;;10.93;9.20;;;;;;;17.78;35.69;101870.25;4877922;28;123085;-66
2021/05/03 09:51:39;;;;;;;12.05;9.18;;;;;;;17.84;35.65;101856.53;4865957;28;120237;-66
2021/05/03 09:54:14;;;;;;;14.43;9.10;;;;;;;17.87;35.56;101853.66;4880123;28;118968;-66
2021/05/03 09:57:07;;;;;;;12.07;9.05;;;;;;;17.90;35.48;101845.47;4884344;28;122976;-65
2021/05/03 09:59:52;;;;;;;17.63;9.10;;;;;;;17.97;36.04;101837.88;4870188;28;124056;-65
2021/05/03 10:02:24;;;;;;;10.82;8.50;;;;;;;18.08;35.28;101839.00;4865106;28;119109;-65
2021/05/03 10:07:40;;;;;;;14.15;9.13;;;;;;;18.31;34.99;101828.66;4909369;23;124517;-73
2021/05/03 10:10:14;;;;;;;11.05;9.20;;;;;;;18.36;34.68;101821.19;4927983;28;124774;-74
2021/05/03 10:12:41;;;;;;;12.63;8.70;;;;;;;18.37;34.64;101828.28;4907411;28;118861;-73
2021/05/03 10:15:10;;;;;;;9.40;8.38;;;;;;;18.37;34.41;101812.19;4899123;28;119222;-74
2021/05/03 10:17:38;;;;;;;12.85;9.18;;;;;;;18.41;34.22;101808.34;4916587;28;124049;-72
2021/05/03 10:20:07;;;;;;;11.23;8.80;;;;;;;18.46;33.87;101805.41;4925281;28;124988;-74
2021/05/03 10:22:35;;;;;;;10.63;8.93;;;;;;;18.49;33.98;101806.03;4910583;28;118310;-73
2021/05/03 10:25:05;;;;;;;11.32;9.38;;;;;;;18.54;33.94;101796.88;4911316;28;118921;-72
2021/05/03 10:27:33;;;;;;;10.07;8.30;;;;;;;18.59;33.63;101805.47;4911638;28;123807;-73
2021/05/03 10:30:08;;;;;;;11.20;9.30;;;;;;;18.63;33.60;101802.50;4910281;28;122891;-73
2021/05/03 10:32:36;;;;;;;11.60;8.18;;;;;;;18.68;33.37;101799.50;4927795;28;119378;-74
2021/05/03 10:35:22;;;;;;;12.48;8.93;;;;;;;18.69;33.39;101790.50;4914545;28;118684;-73
2021/05/03 10:37:49;;;;;;;;;;;;;;;18.70;34.48;101786.00;4923579;28;124449;-73
2021/05/03 10:40:18;;;;;;;12.75;8.38;;;;;;;18.69;33.19;101785.13;4910749;28;124421;-73
2021/05/03 10:43:08;;;;;;;10.25;8.50;;;;;;;18.61;33.21;101787.44;4894795;28;120345;-74
2021/05/03 10:45:49;;;;;;;9.02;8.10;;;;;;;18.56;32.79;101784.22;4913443;28;120270;-73
2021/05/03 10:48:29;;;;;;;10.23;8.18;;;;;;;18.52;32.69;101771.94;4914228;28;123370;-72
2021/05/03 10:50:56;;;;;;;9.50;7.90;;;;;;;18.49;32.87;101768.47;4912935;28;123867;-72
2021/05/03 10:53:29;;;;;;;9.70;8.48;;;;;;;18.56;32.89;101762.75;4908852;28;118488;-73
2021/05/03 10:56:04;;;;;;;11.20;8.45;;;;;;;18.63;32.82;101756.88;4928194;28;119763;-74
2021/05/03 10:59:00;;;;;;;10.80;8.75;;;;;;;18.74;33.04;101750.81;4908690;28;123953;-73
2021/05/03 11:01:27;;;;;;;;;;;;;;;18.82;33.90;101756.56;4919575;28;124208;-75
2021/05/03 11:03:57;;;;;;;12.15;8.32;;;;;;;18.85;32.75;101764.44;4898078;28;119885;-75
2021/05/03 11:06:38;;;;;;;9.38;8.02;;;;;;;18.82;32.24;101751.22;4916946;28;120323;-75
2021/05/03 11:12:13;;;;;;;9.45;8.10;;;;;;;18.85;32.36;101742.97;4900252;28;123032;-75
2021/05/03 11:15:13;;;;;;;10.88;8.38;;;;;;;18.86;32.42;101733.94;4899434;28;118848;-74
2021/05/03 11:18:20;;;;;;;10.88;7.28;;;;;;;18.84;31.92;101741.22;4920831;28;119333;-75
2021/05/03 11:21:03;;;;;;;9.85;8.00;;;;;;;18.81;32.08;101730.69;4930354;28;124103;-75
2021/05/03 11:23:33;;;;;;;12.65;8.32;;;;;;;18.78;31.57;101728.19;4926120;28;124612;-75
2021/05/03 11:26:01;;;;;;;9.73;8.38;;;;;;;18.73;31.48;101722.25;4894078;28;118719;-74
2021/05/03 11:28:33;;;;;;;11.02;7.95;;;;;;;18.68;31.55;101719.00;4911308;28;119195;-75
2021/05/03 11:31:11;;;;;;;9.50;7.88;;;;;;;18.64;31.41;101725.53;4918347;28;123467;-74
2021/05/03 11:33:45;;;;;;;10.02;8.23;;;;;;;18.62;31.75;101719.41;4934620;28;124242;-75
2021/05/03 11:36:24;;;;;;;12.00;7.80;;;;;;;18.59;31.66;101714.22;4913953;28;120194;-74
2021/05/03 11:41:59;;;;;;;14.25;7.95;;;;;;;18.67;31.73;101711.94;4926783;28;123553;-74
2021/05/03 11:47:35;;;;;;;8.80;7.70;;;;;;;18.84;31.47;101703.66;4904076;28;118580;-76
2021/05/03 11:50:02;;;;;;;10.45;7.68;;;;;;;18.86;31.44;101695.50;4907804;28;118297;-74
2021/05/03 11:52:31;;;;;;;10.73;8.43;;;;;;;18.86;31.23;101701.72;4895832;28;123277;-75